createdAt,value
2022-11-01T00:02:10.321Z,24.10
2022-11-01T00:04:37.626Z,22.73
2022-11-01T00:07:04.513Z,24.10
2022-11-01T00:09:31.348Z,24.27
2022-11-01T00:11:58.749Z,23.85
2022-11-01T00:14:25.540Z,23.15
2022-11-01T00:16:52.315Z,23.52
2022-11-01T00:19:19.426Z,23.05
2022-11-01T00:21:46.171Z,23.90
2022-11-01T00:24:12.894Z,20.73
2022-11-01T00:26:39.824Z,23.38
2022-11-01T00:29:09.885Z,22.13
2022-11-01T00:31:36.700Z,22.05
2022-11-01T00:34:06.077Z,22.23
2022-11-01T00:36:34.008Z,22.60
2022-11-01T00:39:00.698Z,23.05
2022-11-01T00:41:27.451Z,24.08
2022-11-01T00:43:54.415Z,23.50
2022-11-01T00:46:23.772Z,23.67
2022-11-01T00:48:50.546Z,24.13
2022-11-01T00:51:17.559Z,23.98
2022-11-01T00:53:44.198Z,23.98
2022-11-01T00:56:10.877Z,23.60
2022-11-01T00:58:37.535Z,23.95
2022-11-01T01:01:04.328Z,24.05
2022-11-01T01:03:31.212Z,23.50
2022-11-01T01:05:58.156Z,23.60
2022-11-01T01:08:25.696Z,23.70
2022-11-01T01:10:52.662Z,22.67
2022-11-01T01:13:20.272Z,24.27
2022-11-01T01:15:47.554Z,23.52
2022-11-01T01:18:14.610Z,25.35
2022-11-01T01:20:41.217Z,23.55
2022-11-01T01:23:07.866Z,24.73
2022-11-01T01:25:34.553Z,24.35
2022-11-01T01:28:01.817Z,24.10
2022-11-01T01:30:28.599Z,23.60
2022-11-01T01:32:55.247Z,24.63
2022-11-01T01:35:21.837Z,24.48
2022-11-01T01:37:48.472Z,25.02
2022-11-01T01:40:15.204Z,25.27
2022-11-01T01:42:42.890Z,24.38
2022-11-01T01:45:22.244Z,25.17
2022-11-01T01:47:52.446Z,26.02
2022-11-01T01:50:35.354Z,25.77
2022-11-01T01:53:25.913Z,26.27
2022-11-01T01:56:32.198Z,24.63
2022-11-01T02:01:38.513Z,24.98
2022-11-01T02:04:11.589Z,25.00
2022-11-01T02:06:39.347Z,26.10
2022-11-01T02:09:07.756Z,26.20
2022-11-01T02:11:34.764Z,27.40
2022-11-01T02:14:03.063Z,27.48
2022-11-01T02:17:00.037Z,26.25
2022-11-01T02:19:48.321Z,25.75
2022-11-01T02:22:30.056Z,26.05
2022-11-01T02:25:10.662Z,26.33
2022-11-01T02:28:05.120Z,26.10
2022-11-01T02:31:03.953Z,27.27
2022-11-01T02:33:38.487Z,28.27
2022-11-01T02:36:12.125Z,28.90
2022-11-01T02:38:48.843Z,27.17
2022-11-01T02:41:40.247Z,27.30
2022-11-01T02:44:15.372Z,26.27
2022-11-01T02:47:02.659Z,25.23
2022-11-01T02:49:32.639Z,25.70
2022-11-01T02:52:01.312Z,28.50
2022-11-01T02:54:33.590Z,28.15
2022-11-01T02:57:22.727Z,26.40
2022-11-01T02:59:49.529Z,27.92
2022-11-01T03:02:39.236Z,25.80
2022-11-01T03:05:22.629Z,28.02
2022-11-01T03:07:55.718Z,27.55
2022-11-01T03:10:26.388Z,25.73
2022-11-01T03:13:14.445Z,28.48
2022-11-01T03:15:48.936Z,28.00
2022-11-01T03:18:27.133Z,27.33
2022-11-01T03:21:15.459Z,28.77
2022-11-01T03:23:51.073Z,29.35
2022-11-01T03:26:25.516Z,28.33
2022-11-01T03:28:56.867Z,28.33
2022-11-01T03:31:29.180Z,26.45
2022-11-01T03:34:04.041Z,27.90
2022-11-01T03:36:39.081Z,27.15
2022-11-01T03:41:43.560Z,26.55
2022-11-01T03:44:12.855Z,27.33
2022-11-01T03:46:40.657Z,27.00
2022-11-01T03:49:07.331Z,27.65
2022-11-01T03:51:34.042Z,26.48
2022-11-01T03:54:00.667Z,28.42
2022-11-01T03:56:27.325Z,26.95
2022-11-01T03:58:53.964Z,27.65
2022-11-01T04:01:21.035Z,28.05
2022-11-01T04:03:47.837Z,27.35
2022-11-01T04:06:14.529Z,28.73
2022-11-01T04:08:41.131Z,29.25
2022-11-01T04:11:07.755Z,29.58
2022-11-01T04:13:34.453Z,29.63
2022-11-01T04:16:19.845Z,31.42
2022-11-01T04:19:05.184Z,29.98
2022-11-01T04:21:32.201Z,31.08
2022-11-01T04:23:58.819Z,30.08
2022-11-01T04:26:25.913Z,31.85
2022-11-01T04:28:58.513Z,31.67
2022-11-01T04:31:37.276Z,30.38
2022-11-01T04:34:05.253Z,29.67
2022-11-01T04:36:32.238Z,29.27
2022-11-01T04:38:58.989Z,29.77
2022-11-01T04:41:28.170Z,29.02
2022-11-01T04:43:57.582Z,31.50
2022-11-01T04:46:24.466Z,29.48
2022-11-01T04:48:51.198Z,28.17
2022-11-01T04:51:17.816Z,28.80
2022-11-01T04:53:44.420Z,28.90
2022-11-01T04:56:13.337Z,28.33
2022-11-01T04:58:43.221Z,26.67
2022-11-01T05:01:14.055Z,28.20
2022-11-01T05:03:40.819Z,27.65
2022-11-01T05:06:07.550Z,26.30
2022-11-01T05:08:34.565Z,26.15
2022-11-01T05:11:01.664Z,27.08
2022-11-01T05:13:28.312Z,26.88
2022-11-01T05:16:17.827Z,26.17
2022-11-01T05:18:42.678Z,25.65
2022-11-01T05:21:09.408Z,25.42
2022-11-01T05:23:35.986Z,25.63
2022-11-01T05:26:02.628Z,24.10
2022-11-01T05:28:29.244Z,24.13
2022-11-01T05:30:57.915Z,23.83
2022-11-01T05:33:24.679Z,23.85
2022-11-01T05:35:51.558Z,23.98
2022-11-01T05:38:18.186Z,24.50
2022-11-01T05:40:44.771Z,25.02
2022-11-01T05:43:11.493Z,25.00
2022-11-01T05:45:38.153Z,23.60
2022-11-01T05:48:05.282Z,23.88
2022-11-01T05:50:32.347Z,23.33
2022-11-01T05:53:08.233Z,25.05
2022-11-01T05:55:35.624Z,25.63
2022-11-01T05:58:02.656Z,24.65
2022-11-01T06:00:29.396Z,24.60
2022-11-01T06:02:58.251Z,23.48
2022-11-01T06:05:26.049Z,24.27
2022-11-01T06:07:52.785Z,25.13
2022-11-01T06:10:19.356Z,24.23
2022-11-01T06:12:46.065Z,22.90
2022-11-01T06:15:12.828Z,25.13
2022-11-01T06:17:39.512Z,24.52
2022-11-01T06:20:06.620Z,25.20
2022-11-01T06:22:38.171Z,24.42
2022-11-01T06:25:05.942Z,24.63
2022-11-01T06:27:33.194Z,24.83
2022-11-01T06:29:59.858Z,22.45
2022-11-01T06:32:27.132Z,24.25
2022-11-01T06:34:53.782Z,23.92
2022-11-01T06:37:20.374Z,24.88
2022-11-01T06:39:47.131Z,25.27
2022-11-01T06:42:13.747Z,24.88
2022-11-01T06:44:40.684Z,23.85
2022-11-01T06:47:07.286Z,23.00
2022-11-01T06:49:34.593Z,22.77
2022-11-01T06:52:01.206Z,23.38
2022-11-01T06:54:27.835Z,24.30
2022-11-01T06:56:54.495Z,24.55
2022-11-01T06:59:21.125Z,24.40
2022-11-01T07:01:47.870Z,22.58
2022-11-01T07:04:14.674Z,22.25
2022-11-01T07:06:41.337Z,22.52
2022-11-01T07:09:07.950Z,23.80
2022-11-01T07:11:34.663Z,23.83
2022-11-01T07:14:01.299Z,24.70
2022-11-01T07:16:28.972Z,23.15
2022-11-01T07:18:56.262Z,25.13
2022-11-01T07:21:23.301Z,25.15
2022-11-01T07:23:50.666Z,25.77
2022-11-01T07:26:17.681Z,26.58
2022-11-01T07:28:44.453Z,25.15
2022-11-01T07:31:11.135Z,23.98
2022-11-01T07:33:37.860Z,24.30
2022-11-01T07:36:05.274Z,24.40
2022-11-01T07:38:32.383Z,25.73
2022-11-01T07:40:59.126Z,25.83
2022-11-01T07:43:25.862Z,25.77
2022-11-01T07:45:53.311Z,26.20
2022-11-01T07:48:20.344Z,25.48
2022-11-01T07:50:47.163Z,27.67
2022-11-01T07:53:17.790Z,25.95
2022-11-01T07:55:45.720Z,25.75
2022-11-01T07:58:13.806Z,25.85
2022-11-01T08:00:41.562Z,22.60
2022-11-01T08:03:16.470Z,23.73
2022-11-01T08:08:10.846Z,20.30
2022-11-01T08:10:38.312Z,19.40
2022-11-01T08:13:09.075Z,18.48
2022-11-01T08:15:36.159Z,19.60
2022-11-01T08:18:03.527Z,19.13
2022-11-01T08:20:30.461Z,19.58
2022-11-01T08:22:57.509Z,20.20
2022-11-01T08:25:25.120Z,20.38
2022-11-01T08:27:52.345Z,21.50
2022-11-01T08:30:20.034Z,19.88
2022-11-01T08:32:46.904Z,19.73
2022-11-01T08:35:13.789Z,20.42
2022-11-01T08:37:53.540Z,21.13
2022-11-01T08:40:21.197Z,20.20
2022-11-01T08:42:48.578Z,21.70
2022-11-01T08:45:18.430Z,21.05
2022-11-01T08:47:45.685Z,20.80
2022-11-01T08:50:16.339Z,19.73
2022-11-01T08:52:43.579Z,21.67
2022-11-01T08:55:11.632Z,21.02
2022-11-01T08:57:38.562Z,20.55
2022-11-01T09:00:10.230Z,21.30
2022-11-01T09:02:37.325Z,20.83
2022-11-01T09:05:05.223Z,20.67
2022-11-01T09:07:33.089Z,22.50
2022-11-01T09:10:00.254Z,21.55
2022-11-01T09:12:27.151Z,22.35
2022-11-01T09:14:53.912Z,21.77
2022-11-01T09:17:20.646Z,20.85
2022-11-01T09:19:47.354Z,20.13
2022-11-01T09:22:14.190Z,21.27
2022-11-01T09:24:40.860Z,20.92
2022-11-01T09:27:09.546Z,20.67
2022-11-01T09:29:36.243Z,20.15
2022-11-01T09:32:03.388Z,21.17
2022-11-01T09:34:30.138Z,20.58
2022-11-01T09:36:56.946Z,22.05
2022-11-01T09:39:23.936Z,22.33
2022-11-01T09:42:04.416Z,21.52
2022-11-01T09:44:36.033Z,20.52
2022-11-01T09:47:13.499Z,22.48
2022-11-01T09:49:43.598Z,20.23
2022-11-01T09:52:19.360Z,19.15
2022-11-01T09:54:47.846Z,19.73
2022-11-01T09:57:39.077Z,19.25
2022-11-01T10:00:14.576Z,18.08
2022-11-01T10:02:54.121Z,18.88
2022-11-01T10:05:44.759Z,19.00
2022-11-01T10:08:41.135Z,18.65
2022-11-01T10:11:36.533Z,18.38
2022-11-01T10:14:34.187Z,17.88
2022-11-01T10:17:09.779Z,18.90
2022-11-01T10:19:38.251Z,19.05
2022-11-01T10:22:12.390Z,18.15
2022-11-01T10:24:42.953Z,17.67
2022-11-01T10:27:52.923Z,18.98
2022-11-01T10:30:20.281Z,17.70
2022-11-01T10:32:53.022Z,18.60
2022-11-01T10:35:26.387Z,18.40
2022-11-01T10:38:32.322Z,18.52
2022-11-01T10:41:29.345Z,18.08
2022-11-01T10:44:01.083Z,17.50
2022-11-01T10:46:33.860Z,17.92
2022-11-01T10:49:04.640Z,17.85
2022-11-01T10:51:34.500Z,18.20
2022-11-01T10:54:10.872Z,17.73
2022-11-01T10:56:43.528Z,17.88
2022-11-01T10:59:32.494Z,18.48
2022-11-01T11:02:01.950Z,17.73
2022-11-01T11:04:29.059Z,18.38
2022-11-01T11:06:56.905Z,18.23
2022-11-01T11:09:32.729Z,18.63
2022-11-01T11:12:04.041Z,18.65
2022-11-01T11:14:33.545Z,18.65
2022-11-01T11:17:02.822Z,18.48
2022-11-01T11:19:29.424Z,19.45
2022-11-01T11:21:57.322Z,18.90
2022-11-01T11:24:36.028Z,20.23
2022-11-01T11:27:10.629Z,20.00
2022-11-01T11:30:02.740Z,19.77
2022-11-01T11:32:33.539Z,19.85
2022-11-01T11:35:08.680Z,21.00
2022-11-01T11:37:38.386Z,21.00
2022-11-01T11:40:24.312Z,19.75
2022-11-01T11:42:53.787Z,21.08
2022-11-01T11:45:30.998Z,21.10
2022-11-01T11:48:15.872Z,21.90
2022-11-01T11:50:43.478Z,22.45
2022-11-01T11:53:24.602Z,22.05
2022-11-01T11:55:59.955Z,22.15
2022-11-01T11:58:35.886Z,23.30
2022-11-01T12:01:15.783Z,22.92
2022-11-01T12:03:48.684Z,22.60
2022-11-01T12:06:27.278Z,22.65
2022-11-01T12:08:56.440Z,22.63
2022-11-01T12:11:24.508Z,22.98
2022-11-01T12:14:03.945Z,23.60
2022-11-01T12:16:40.419Z,23.58
2022-11-01T12:19:29.373Z,22.52
2022-11-01T12:22:01.180Z,22.75
2022-11-01T12:24:42.655Z,24.27
2022-11-01T12:27:15.521Z,23.50
2022-11-01T12:29:52.068Z,23.80
2022-11-01T12:32:27.850Z,25.15
2022-11-01T12:34:58.242Z,26.27
2022-11-01T12:37:42.270Z,25.67
2022-11-01T12:40:33.425Z,24.77
2022-11-01T12:43:14.987Z,25.13
2022-11-01T12:45:56.951Z,27.55
2022-11-01T12:48:49.438Z,28.70
2022-11-01T12:51:32.716Z,25.23
2022-11-01T12:54:00.029Z,26.95
2022-11-01T12:56:27.256Z,27.27
2022-11-01T12:58:56.549Z,26.65
2022-11-01T13:01:33.228Z,26.02
2022-11-01T13:04:31.166Z,25.48
2022-11-01T13:07:33.042Z,26.38
2022-11-01T13:13:24.986Z,25.40
2022-11-01T13:15:51.695Z,25.48
2022-11-01T13:18:37.022Z,27.00
2022-11-01T13:21:17.856Z,28.17
2022-11-01T13:23:57.395Z,28.83
2022-11-01T13:26:32.397Z,28.38
2022-11-01T13:31:45.080Z,29.10
2022-11-01T13:34:34.712Z,28.13
2022-11-01T13:37:25.217Z,28.45
2022-11-01T13:40:06.214Z,27.92
2022-11-01T13:42:40.826Z,26.48
2022-11-01T13:45:07.378Z,26.95
2022-11-01T13:50:15.526Z,25.85
2022-11-01T13:53:20.851Z,25.95
2022-11-01T13:56:17.393Z,26.00
2022-11-01T13:58:44.276Z,23.38
2022-11-01T14:01:37.118Z,27.10
2022-11-01T14:04:19.097Z,29.08
2022-11-01T14:07:10.615Z,27.52
2022-11-01T14:09:51.718Z,28.08
2022-11-01T14:12:43.425Z,27.90
2022-11-01T14:15:16.410Z,27.83
2022-11-01T14:18:07.416Z,28.00
2022-11-01T14:20:46.633Z,28.63
2022-11-01T14:23:28.606Z,28.83
2022-11-01T14:26:20.461Z,29.60
2022-11-01T14:28:56.747Z,30.15
2022-11-01T14:31:26.806Z,28.60
2022-11-01T14:33:59.040Z,29.23
2022-11-01T14:36:33.035Z,29.17
2022-11-01T14:39:09.194Z,30.25
2022-11-01T14:41:40.531Z,30.10
2022-11-01T14:44:35.261Z,29.50
2022-11-01T14:47:13.092Z,29.45
2022-11-01T14:49:44.031Z,29.92
2022-11-01T14:52:25.088Z,28.25
2022-11-01T14:54:59.430Z,28.25
2022-11-01T14:57:32.559Z,27.98
2022-11-01T15:00:17.821Z,26.48
2022-11-01T15:02:44.676Z,26.98
2022-11-01T15:05:14.203Z,25.65
2022-11-01T15:07:41.892Z,26.00
2022-11-01T15:10:14.217Z,26.17
2022-11-01T15:13:01.433Z,29.75
2022-11-01T15:15:31.304Z,29.48
2022-11-01T15:18:12.282Z,28.65
2022-11-01T15:20:42.451Z,30.38
2022-11-01T15:23:18.313Z,30.73
2022-11-01T15:25:54.676Z,28.85
2022-11-01T15:28:30.659Z,23.98
2022-11-01T15:31:02.872Z,24.90
2022-11-01T15:33:32.725Z,24.13
2022-11-01T15:36:22.201Z,25.33
2022-11-01T15:38:52.067Z,23.33
2022-11-01T15:41:20.989Z,23.20
2022-11-01T15:43:53.277Z,22.95
2022-11-01T15:46:22.016Z,23.48
2022-11-01T15:48:50.661Z,25.00
2022-11-01T15:51:26.682Z,23.33
2022-11-01T15:54:07.269Z,18.35
2022-11-01T15:56:43.621Z,17.98
2022-11-01T15:59:30.516Z,18.45
2022-11-01T16:02:01.039Z,22.63
2022-11-01T16:04:35.393Z,19.30
2022-11-01T16:07:06.870Z,17.00
2022-11-01T16:09:33.498Z,17.58
2022-11-01T16:12:03.319Z,20.85
2022-11-01T16:14:37.301Z,17.98
2022-11-01T16:17:24.041Z,20.70
2022-11-01T16:19:52.585Z,19.52
2022-11-01T16:22:38.153Z,18.40
2022-11-01T16:25:05.028Z,18.45
2022-11-01T16:27:32.397Z,18.15
2022-11-01T16:30:00.284Z,18.50
2022-11-01T16:32:30.159Z,31.90
2022-11-01T16:34:58.665Z,27.85
2022-11-01T16:37:27.527Z,24.70
2022-11-01T16:39:54.376Z,21.88
2022-11-01T16:42:22.331Z,20.27
2022-11-01T16:44:57.680Z,21.15
2022-11-01T16:47:24.784Z,19.83
2022-11-01T16:49:54.831Z,20.48
2022-11-01T16:52:22.508Z,19.98
2022-11-01T16:54:52.933Z,20.05
2022-11-01T16:57:25.985Z,19.38
2022-11-01T16:59:54.524Z,18.67
2022-11-01T17:02:25.159Z,18.60
2022-11-01T17:04:57.000Z,19.58
2022-11-01T17:07:24.169Z,20.92
2022-11-01T17:09:50.784Z,41.50
2022-11-01T17:12:17.392Z,93.18
2022-11-01T17:14:45.566Z,65.90
2022-11-01T17:17:19.532Z,65.30
2022-11-01T17:19:50.751Z,48.63
2022-11-01T17:22:21.076Z,31.30
2022-11-01T17:24:47.725Z,26.00
2022-11-01T17:27:15.547Z,21.80
2022-11-01T17:29:42.970Z,25.23
2022-11-01T17:32:11.161Z,24.08
2022-11-01T17:34:38.182Z,29.42
2022-11-01T17:37:05.474Z,24.15
2022-11-01T17:39:32.252Z,42.00
2022-11-01T17:41:59.246Z,48.00
2022-11-01T17:44:25.967Z,43.70
2022-11-01T17:46:52.633Z,37.63
2022-11-01T17:49:21.533Z,23.65
2022-11-01T17:51:53.288Z,29.73
2022-11-01T17:54:21.956Z,23.88
2022-11-01T17:56:48.608Z,19.60
2022-11-01T17:59:15.257Z,20.50
2022-11-01T18:01:42.536Z,21.52
2022-11-01T18:04:09.362Z,21.40
2022-11-01T18:06:36.194Z,21.33
2022-11-01T18:09:18.031Z,20.60
2022-11-01T18:12:00.380Z,20.52
2022-11-01T18:14:27.093Z,20.70
2022-11-01T18:17:07.656Z,19.50
2022-11-01T18:20:03.634Z,20.65
2022-11-01T18:22:55.443Z,20.70
2022-11-01T18:25:31.150Z,20.20
2022-11-01T18:28:00.900Z,20.90
2022-11-01T18:30:27.789Z,20.88
2022-11-01T18:33:04.182Z,21.05
2022-11-01T18:35:33.591Z,21.10
2022-11-01T18:38:27.788Z,20.30
2022-11-01T18:40:59.093Z,20.48
2022-11-01T18:43:29.046Z,20.63
2022-11-01T18:46:23.333Z,20.88
2022-11-01T18:48:42.610Z,21.98
2022-11-01T18:51:29.596Z,21.10
2022-11-01T18:54:08.138Z,21.40
2022-11-01T18:56:47.384Z,20.48
2022-11-01T18:59:21.740Z,21.45
2022-11-01T19:01:58.611Z,20.90
2022-11-01T19:04:29.372Z,21.65
2022-11-01T19:07:19.884Z,31.15
2022-11-01T19:09:54.190Z,25.98
2022-11-01T19:12:28.055Z,36.35
2022-11-01T19:15:21.706Z,22.08
2022-11-01T19:17:54.813Z,19.50
2022-11-01T19:20:30.543Z,28.55
2022-11-01T19:23:00.345Z,19.17
2022-11-01T19:25:30.986Z,18.42
2022-11-01T19:28:05.739Z,18.35
2022-11-01T19:30:33.583Z,18.40
2022-11-01T19:33:24.517Z,17.45
2022-11-01T19:35:54.710Z,18.15
2022-11-01T19:38:22.110Z,17.70
2022-11-01T19:40:52.000Z,18.88
2022-11-01T19:43:24.739Z,17.95
2022-11-01T19:45:56.467Z,17.48
2022-11-01T19:48:27.801Z,17.48
2022-11-01T19:50:55.050Z,18.48
2022-11-01T19:53:25.254Z,17.50
2022-11-01T19:55:53.082Z,17.55
2022-11-01T19:58:24.784Z,16.92
2022-11-01T20:01:12.738Z,18.15
2022-11-01T20:03:48.583Z,17.83
2022-11-01T20:06:22.288Z,17.33
2022-11-01T20:08:51.129Z,17.63
2022-11-01T20:11:17.821Z,17.70
2022-11-01T20:13:44.620Z,17.95
2022-11-01T20:16:11.310Z,18.15
2022-11-01T20:18:38.044Z,18.50
2022-11-01T20:21:06.267Z,17.45
2022-11-01T20:23:33.924Z,18.30
2022-11-01T20:26:01.097Z,18.40
2022-11-01T20:28:28.058Z,18.52
2022-11-01T20:30:55.951Z,18.77
2022-11-01T20:33:24.318Z,17.80
2022-11-01T20:35:51.383Z,17.73
2022-11-01T20:40:49.974Z,18.35
2022-11-01T20:43:16.641Z,18.23
2022-11-01T20:45:43.252Z,17.45
2022-11-01T20:48:09.999Z,18.90
2022-11-01T20:50:36.743Z,17.60
2022-11-01T20:53:05.370Z,17.30
2022-11-01T20:55:33.631Z,17.00
2022-11-01T20:58:00.594Z,17.65
2022-11-01T21:00:27.365Z,17.33
2022-11-01T21:02:57.822Z,17.17
2022-11-01T21:05:27.199Z,17.13
2022-11-01T21:08:18.556Z,16.98
2022-11-01T21:10:45.231Z,17.88
2022-11-01T21:13:35.393Z,18.23
2022-11-01T21:16:06.809Z,17.75
2022-11-01T21:18:35.049Z,17.35
2022-11-01T21:21:13.534Z,17.63
2022-11-01T21:23:41.521Z,17.38
2022-11-01T21:26:17.388Z,16.83
2022-11-01T21:28:53.640Z,17.08
2022-11-01T21:31:28.706Z,17.30
2022-11-01T21:36:41.590Z,16.73
2022-11-01T21:39:24.285Z,19.85
2022-11-01T21:41:53.628Z,24.15
2022-11-01T21:44:23.361Z,20.13
2022-11-01T21:47:16.289Z,22.05
2022-11-01T21:49:43.396Z,19.15
2022-11-01T21:54:43.223Z,20.25
2022-11-01T21:57:10.965Z,18.80
2022-11-01T21:59:38.232Z,20.63
2022-11-01T22:02:06.847Z,19.60
2022-11-01T22:04:33.623Z,17.05
2022-11-01T22:07:02.322Z,18.42
2022-11-01T22:09:29.895Z,20.58
2022-11-01T22:11:56.580Z,18.02
2022-11-01T22:14:24.240Z,20.20
2022-11-01T22:16:51.056Z,23.17
2022-11-01T22:19:17.668Z,21.48
2022-11-01T22:24:15.924Z,19.55
2022-11-01T22:26:42.544Z,19.23
2022-11-01T22:29:09.169Z,23.60
2022-11-01T22:31:35.839Z,19.40
2022-11-01T22:34:03.041Z,19.92
2022-11-01T22:36:34.054Z,18.98
2022-11-01T22:39:06.354Z,21.20
2022-11-01T22:41:36.756Z,20.20
2022-11-01T22:44:11.903Z,18.40
2022-11-01T22:46:57.932Z,18.83
2022-11-01T22:49:37.482Z,20.10
2022-11-01T22:52:24.515Z,19.52
2022-11-01T22:54:56.353Z,18.27
2022-11-01T22:57:27.571Z,17.92
2022-11-01T23:00:19.521Z,18.83
2022-11-01T23:02:47.426Z,17.35
2022-11-01T23:05:14.158Z,19.08
2022-11-01T23:07:49.893Z,19.80
2022-11-01T23:10:32.800Z,18.63
2022-11-01T23:13:20.056Z,18.40
2022-11-01T23:15:47.040Z,19.50
2022-11-01T23:18:32.713Z,18.35
2022-11-01T23:21:02.708Z,17.67
2022-11-01T23:23:29.531Z,18.10
2022-11-01T23:25:59.142Z,19.83
2022-11-01T23:28:27.429Z,18.48
2022-11-01T23:30:54.793Z,19.45
2022-11-01T23:33:23.174Z,18.33
2022-11-01T23:35:56.088Z,18.33
2022-11-01T23:38:32.596Z,18.90
2022-11-01T23:40:59.220Z,17.73
2022-11-01T23:43:38.564Z,20.23
2022-11-01T23:46:06.364Z,18.17
2022-11-01T23:48:33.689Z,18.77
2022-11-01T23:51:00.442Z,17.90
2022-11-01T23:53:35.370Z,18.50
2022-11-01T23:58:32.586Z,18.02
